Terminal Aerodrome Forecast
Issued by NWS Glasgow, MT

Home | Current Version | Previous Version | Text Only | Print | Product List | Glossary On
Versions: 1 2 3 4 5 6 7 8 9 10 11 12 13 14 15 16 17
000
FTUS45 KGGW 120500
TAFGGW
TAF
KGGW 120527Z 1206/1306 09007KT P6SM SCT150
     FM121300 VRB05KT P6SM SCT200
     FM122100 31014KT P6SM FEW220
     FM130300 34009KT P6SM FEW220=

USA.gov is the U.S. government's official web portal to all federal, state and local government web resources and services.